Time;durP1;ratioP1;P1;durP2;ratioP2;P2;SDS_P1;SDS_P2;PMS_P1;PMS_P2;Temp;Humidity;BMP_temperature;BMP_pressure;BME280_temperature;BME280_humidity;BME280_pressure;Samples;Min_cycle;Max_cycle;Signal;HPM_P1;HPM_P2
2023/09/24 00:01:05;;;;;;;6.13;1.92;;;13.50;99.90;;;;;;5060320;28;20058;-83
2023/09/24 00:03:32;;;;;;;1.88;1.40;;;13.50;99.90;;;;;;5050903;28;20028;-83
2023/09/24 00:06:03;;;;;;;2.22;1.42;;;13.50;99.90;;;;;;5052725;28;20108;-84
2023/09/24 00:08:29;;;;;;;4.60;1.38;;;13.40;99.90;;;;;;5051922;28;20041;-84
2023/09/24 00:10:56;;;;;;;5.47;1.83;;;13.30;99.90;;;;;;5056715;28;20055;-85
2023/09/24 00:13:25;;;;;;;4.35;1.70;;;13.20;99.90;;;;;;5070500;28;20025;-85
2023/09/24 00:15:52;;;;;;;3.72;1.73;;;13.20;99.90;;;;;;5058531;28;20072;-83
2023/09/24 00:18:19;;;;;;;5.75;1.83;;;13.20;99.90;;;;;;5052997;28;20020;-83
2023/09/24 00:20:45;;;;;;;3.05;1.52;;;13.20;99.90;;;;;;5059317;28;20072;-84
2023/09/24 00:23:14;;;;;;;11.55;1.70;;;13.20;99.90;;;;;;5058379;28;20031;-83
2023/09/24 00:25:40;;;;;;;2.30;1.10;;;13.20;99.90;;;;;;5061241;28;20380;-83
2023/09/24 00:28:07;;;;;;;3.97;1.73;;;13.20;99.90;;;;;;5055603;28;20052;-83
2023/09/24 00:30:34;;;;;;;4.03;1.85;;;13.20;99.90;;;;;;5056510;28;20526;-82
2023/09/24 00:33:00;;;;;;;5.72;1.73;;;13.20;99.90;;;;;;5051964;28;20032;-83
2023/09/24 00:35:26;;;;;;;2.55;1.35;;;13.20;99.90;;;;;;5048901;28;20060;-83
2023/09/24 00:37:52;;;;;;;5.10;1.50;;;13.20;99.90;;;;;;5060546;28;20502;-83
2023/09/24 00:40:18;;;;;;;3.63;1.80;;;13.20;99.90;;;;;;5059455;28;20400;-83
2023/09/24 00:42:49;;;;;;;3.65;1.38;;;13.20;99.90;;;;;;5060762;28;20030;-83
2023/09/24 00:45:15;;;;;;;4.30;1.63;;;13.10;99.90;;;;;;5060399;28;20074;-82
2023/09/24 00:47:42;;;;;;;8.50;2.17;;;13.10;99.90;;;;;;5060055;28;20040;-83
2023/09/24 00:50:09;;;;;;;2.75;1.70;;;13.10;99.90;;;;;;5057225;28;20034;-83
2023/09/24 00:52:37;;;;;;;2.13;1.60;;;13.10;99.90;;;;;;5057435;28;20028;-83
2023/09/24 00:55:05;;;;;;;4.53;1.50;;;13.00;99.90;;;;;;5056305;28;20029;-83
2023/09/24 00:57:33;;;;;;;4.63;1.83;;;13.00;99.90;;;;;;5051331;28;20497;-82
2023/09/24 01:00:00;;;;;;;3.47;1.65;;;12.90;99.90;;;;;;5057246;28;20032;-84
2023/09/24 01:02:32;;;;;;;4.38;1.80;;;12.90;99.90;;;;;;5062237;28;20119;-83
2023/09/24 01:05:00;;;;;;;5.65;1.92;;;13.00;99.90;;;;;;5053706;28;20090;-80
2023/09/24 01:07:26;;;;;;;3.22;1.80;;;13.00;99.90;;;;;;5046357;28;20082;-83
2023/09/24 01:09:53;;;;;;;3.85;1.67;;;13.00;99.90;;;;;;5052891;28;20034;-82
2023/09/24 01:12:23;;;;;;;6.35;2.20;;;13.10;99.90;;;;;;5057047;28;20028;-82
2023/09/24 01:14:49;;;;;;;5.90;1.70;;;13.10;99.90;;;;;;5054155;28;20043;-82
2023/09/24 01:17:17;;;;;;;8.98;2.20;;;13.10;99.90;;;;;;5057574;28;20031;-78
2023/09/24 01:19:42;;;;;;;5.35;1.75;;;13.20;99.90;;;;;;5053062;28;20223;-81
2023/09/24 01:22:09;;;;;;;4.70;1.63;;;13.20;99.90;;;;;;5054595;28;20663;-83
2023/09/24 01:24:34;;;;;;;4.72;1.70;;;13.30;99.90;;;;;;5060247;28;20588;-83
2023/09/24 01:27:00;;;;;;;10.52;1.75;;;13.30;99.90;;;;;;5057386;28;20135;-82
2023/09/24 01:29:26;;;;;;;3.17;1.55;;;13.30;99.90;;;;;;5052294;28;20031;-82
2023/09/24 01:31:52;;;;;;;7.78;2.03;;;13.30;99.90;;;;;;5054116;28;20423;-82
2023/09/24 01:34:19;;;;;;;5.10;1.52;;;13.30;99.90;;;;;;5058956;28;20025;-82
2023/09/24 01:36:45;;;;;;;5.97;1.92;;;13.40;99.90;;;;;;5059283;28;20510;-83
2023/09/24 01:39:16;;;;;;;5.47;1.75;;;13.40;99.90;;;;;;5058679;28;20119;-83
2023/09/24 01:41:45;;;;;;;2.33;1.40;;;13.40;99.90;;;;;;5057923;28;20385;-83
2023/09/24 01:44:13;;;;;;;5.75;1.30;;;13.30;99.90;;;;;;5056484;28;20123;-82
2023/09/24 01:46:39;;;;;;;1.98;1.27;;;13.30;99.90;;;;;;5055826;28;20028;-82
2023/09/24 01:49:05;;;;;;;3.20;1.27;;;13.30;99.90;;;;;;5060829;28;20381;-82
2023/09/24 01:51:31;;;;;;;3.40;1.58;;;13.20;99.90;;;;;;5060300;28;20025;-82
2023/09/24 01:54:00;;;;;;;3.35;1.40;;;13.20;99.90;;;;;;5056932;28;20020;-83
2023/09/24 01:56:25;;;;;;;2.33;1.42;;;13.10;99.90;;;;;;5051495;28;20040;-82
2023/09/24 01:58:52;;;;;;;3.55;1.40;;;13.00;99.90;;;;;;5055653;28;20044;-82
2023/09/24 02:01:17;;;;;;;4.35;1.52;;;13.00;99.90;;;;;;5051314;28;20019;-83
2023/09/24 02:03:46;;;;;;;4.22;1.50;;;13.00;99.90;;;;;;5056988;28;20021;-83
2023/09/24 02:06:14;;;;;;;2.35;1.45;;;13.00;99.90;;;;;;5054024;28;20036;-82
2023/09/24 02:08:40;;;;;;;2.95;1.77;;;13.00;99.90;;;;;;5054863;28;20564;-83
2023/09/24 02:11:06;;;;;;;5.43;2.20;;;12.90;99.90;;;;;;5059437;28;20131;-82
2023/09/24 02:13:31;;;;;;;5.55;1.75;;;12.90;99.90;;;;;;5058327;28;20033;-83
2023/09/24 02:16:00;;;;;;;4.97;1.50;;;12.90;99.90;;;;;;5061180;28;20482;-83
2023/09/24 02:18:32;;;;;;;5.07;1.60;;;12.90;99.90;;;;;;5059674;28;20031;-83
2023/09/24 02:20:59;;;;;;;4.00;1.55;;;12.90;99.90;;;;;;5058234;28;20175;-83
2023/09/24 02:23:25;;;;;;;3.28;1.33;;;12.80;99.90;;;;;;5063702;28;20036;-82
2023/09/24 02:25:52;;;;;;;1.70;1.25;;;12.80;99.90;;;;;;5059506;28;20044;-82
2023/09/24 02:28:18;;;;;;;1.80;1.45;;;12.80;99.90;;;;;;5059274;28;20044;-82
2023/09/24 02:30:45;;;;;;;3.78;1.38;;;12.70;99.90;;;;;;5060219;28;20493;-82
2023/09/24 02:33:11;;;;;;;1.92;1.30;;;12.70;99.90;;;;;;5057937;28;20020;-82
2023/09/24 02:35:36;;;;;;;3.28;1.33;;;12.60;99.90;;;;;;5053962;28;20027;-82
2023/09/24 02:38:04;;;;;;;8.05;1.48;;;12.60;99.90;;;;;;5062338;28;20043;-82
2023/09/24 02:40:30;;;;;;;6.53;1.60;;;12.60;99.90;;;;;;5061621;28;20563;-83
2023/09/24 02:42:58;;;;;;;3.55;1.10;;;12.50;99.90;;;;;;5061167;28;20028;-82
2023/09/24 02:45:25;;;;;;;3.17;1.48;;;12.50;99.90;;;;;;5060113;28;20024;-82
2023/09/24 02:47:51;;;;;;;5.13;1.67;;;12.40;99.90;;;;;;5060041;28;20040;-83
2023/09/24 02:50:22;;;;;;;2.88;1.23;;;12.30;99.90;;;;;;5064734;28;20095;-82
2023/09/24 02:52:49;;;;;;;1.55;1.00;;;12.20;99.90;;;;;;5063873;28;20112;-82
2023/09/24 02:55:15;;;;;;;5.05;1.20;;;12.10;99.90;;;;;;5073497;28;20035;-82
2023/09/24 02:57:46;;;;;;;4.95;1.50;;;12.10;99.90;;;;;;5061856;28;20016;-83
2023/09/24 03:00:19;;;;;;;1.75;1.27;;;12.00;99.90;;;;;;5051270;28;20054;-83
2023/09/24 03:02:45;;;;;;;2.45;1.42;;;11.90;99.90;;;;;;5060493;28;20071;-82
2023/09/24 03:05:12;;;;;;;8.50;1.60;;;11.90;99.90;;;;;;5061136;28;20028;-82
2023/09/24 03:07:40;;;;;;;1.13;1.10;;;11.80;99.90;;;;;;5059891;28;20040;-83
2023/09/24 03:10:07;;;;;;;2.05;1.10;;;11.80;99.90;;;;;;5060658;28;20540;-82
2023/09/24 03:12:37;;;;;;;2.92;1.33;;;11.80;99.90;;;;;;5060782;28;20033;-83
2023/09/24 03:15:05;;;;;;;3.80;1.60;;;11.70;99.90;;;;;;5061606;28;20029;-83
2023/09/24 03:17:33;;;;;;;2.67;1.83;;;11.70;99.90;;;;;;5065076;28;20034;-82
2023/09/24 03:19:59;;;;;;;2.03;1.42;;;11.60;99.90;;;;;;5057198;28;20512;-83
2023/09/24 03:22:25;;;;;;;3.28;1.40;;;11.60;99.90;;;;;;5057719;28;20083;-82
2023/09/24 03:24:51;;;;;;;1.42;1.30;;;11.60;99.90;;;;;;5058073;28;20468;-82
2023/09/24 03:27:17;;;;;;;2.08;1.48;;;11.60;99.90;;;;;;5063138;28;20048;-82
2023/09/24 03:29:46;;;;;;;1.30;1.20;;;11.70;99.90;;;;;;5062142;28;20050;-82
2023/09/24 03:32:11;;;;;;;1.83;1.20;;;11.60;99.90;;;;;;5055439;28;20465;-82
2023/09/24 03:34:38;;;;;;;4.03;1.60;;;11.60;99.90;;;;;;5053356;28;20136;-82
2023/09/24 03:37:09;;;;;;;4.20;1.35;;;11.60;99.90;;;;;;5057529;28;20029;-82
2023/09/24 03:39:35;;;;;;;3.25;1.60;;;11.50;99.90;;;;;;5061887;28;20540;-82
2023/09/24 03:42:01;;;;;;;7.40;1.65;;;11.50;99.90;;;;;;5062023;28;20036;-82
2023/09/24 03:44:29;;;;;;;1.85;1.35;;;11.40;99.90;;;;;;5058819;28;20029;-82
2023/09/24 03:46:55;;;;;;;1.27;1.17;;;11.30;99.90;;;;;;5057907;28;20040;-82
2023/09/24 03:49:20;;;;;;;1.73;1.40;;;11.30;99.90;;;;;;5057338;28;20028;-82
2023/09/24 03:51:46;;;;;;;4.43;1.45;;;11.30;99.90;;;;;;5060992;28;20023;-82
2023/09/24 03:54:12;;;;;;;1.48;1.13;;;11.20;99.90;;;;;;5063419;28;20279;-81
2023/09/24 03:56:37;;;;;;;2.45;1.40;;;11.20;99.90;;;;;;5058357;28;20419;-82
2023/09/24 03:59:03;;;;;;;2.95;1.45;;;11.20;99.90;;;;;;5059080;28;20116;-82
2023/09/24 04:01:31;;;;;;;2.10;1.67;;;11.20;99.90;;;;;;5062959;28;20120;-82
2023/09/24 04:03:59;;;;;;;3.00;1.65;;;11.10;99.90;;;;;;5058811;28;20036;-82
2023/09/24 04:06:25;;;;;;;2.20;1.65;;;11.10;99.90;;;;;;5057883;28;20025;-82
2023/09/24 04:08:54;;;;;;;1.75;1.65;;;11.10;99.90;;;;;;5062495;28;20040;-81
2023/09/24 04:11:20;;;;;;;1.60;1.40;;;11.10;99.90;;;;;;5062400;28;20086;-82
2023/09/24 04:13:45;;;;;;;4.82;1.50;;;11.00;99.90;;;;;;5060579;28;20041;-82
2023/09/24 04:16:14;;;;;;;2.13;1.65;;;11.00;99.90;;;;;;5060853;28;20051;-82
2023/09/24 04:18:43;;;;;;;5.25;2.63;;;11.00;99.90;;;;;;5059630;28;20040;-82
2023/09/24 04:21:19;;;;;;;3.38;1.65;;;11.00;99.90;;;;;;5058880;28;20392;-82
2023/09/24 04:23:45;;;;;;;;;;;11.00;99.90;;;;;;5058973;28;20063;-82
2023/09/24 04:26:20;;;;;;;;;;;10.90;99.90;;;;;;5059045;28;20056;-82
2023/09/24 04:28:50;;;;;;;4.63;1.45;;;10.90;99.90;;;;;;5061690;28;20338;-82
2023/09/24 04:31:17;;;;;;;3.03;1.63;;;11.00;99.90;;;;;;5060232;28;20148;-82
2023/09/24 04:33:44;;;;;;;5.20;2.25;;;10.90;99.90;;;;;;5058666;28;20033;-82
2023/09/24 04:36:10;;;;;;;6.75;1.70;;;10.90;99.90;;;;;;5059715;28;20032;-82
2023/09/24 04:38:38;;;;;;;3.35;1.75;;;10.90;99.90;;;;;;5059093;28;20155;-82
2023/09/24 04:41:04;;;;;;;5.28;1.85;;;10.90;99.90;;;;;;5053377;28;20038;-82
2023/09/24 04:43:29;;;;;;;7.00;1.77;;;10.90;99.90;;;;;;5053181;28;20078;-82
2023/09/24 04:45:55;;;;;;;6.97;2.15;;;10.90;99.90;;;;;;5056965;28;20025;-82
2023/09/24 04:48:21;;;;;;;2.70;1.52;;;10.90;99.90;;;;;;5059211;28;20040;-83
2023/09/24 04:50:46;;;;;;;4.03;1.67;;;10.90;99.90;;;;;;5061547;28;20547;-83
2023/09/24 04:53:12;;;;;;;5.18;1.75;;;10.90;99.90;;;;;;5060136;28;20094;-83
2023/09/24 04:55:37;;;;;;;1.95;1.75;;;11.00;99.90;;;;;;5062305;28;20473;-83
2023/09/24 04:58:09;;;;;;;6.15;2.00;;;11.00;99.90;;;;;;5059917;28;20024;-81
2023/09/24 05:00:41;;;;;;;5.85;2.00;;;11.00;99.90;;;;;;5058087;28;20037;-83
2023/09/24 05:03:10;;;;;;;3.35;1.73;;;11.00;99.90;;;;;;5058711;28;20028;-83
2023/09/24 05:05:42;;;;;;;3.65;1.95;;;11.00;99.90;;;;;;5060202;28;20028;-82
2023/09/24 05:08:09;;;;;;;2.85;1.73;;;11.10;99.90;;;;;;5053771;28;20377;-82
2023/09/24 05:10:36;;;;;;;7.82;2.05;;;11.10;99.90;;;;;;5060707;28;21274;-81
2023/09/24 05:13:06;;;;;;;7.32;1.83;;;11.10;99.90;;;;;;5057830;28;20032;-83
2023/09/24 05:15:35;;;;;;;1.80;1.70;;;11.10;99.90;;;;;;5058496;28;20039;-83
2023/09/24 05:18:02;;;;;;;4.20;1.75;;;11.10;99.90;;;;;;5062514;28;20037;-83
2023/09/24 05:20:30;;;;;;;4.63;2.10;;;11.10;99.90;;;;;;5065690;28;20024;-83
2023/09/24 05:22:55;;;;;;;4.07;1.80;;;11.10;99.90;;;;;;5059190;28;20086;-81
2023/09/24 05:25:21;;;;;;;7.15;1.90;;;11.10;99.90;;;;;;5056017;28;20028;-82
2023/09/24 05:28:06;;;;;;;7.70;1.75;;;11.20;99.90;;;;;;5060230;28;20127;-83
2023/09/24 05:30:42;;;;;;;2.30;1.73;;;11.20;99.90;;;;;;5059200;28;20032;-82
2023/09/24 05:33:18;;;;;;;2.80;1.80;;;11.20;99.90;;;;;;5060846;28;20809;-84
2023/09/24 05:35:43;;;;;;;3.65;1.70;;;11.20;99.90;;;;;;5055623;28;20024;-83
2023/09/24 05:38:11;;;;;;;1.80;1.60;;;11.20;99.90;;;;;;5055833;28;20385;-84
2023/09/24 05:40:39;;;;;;;2.67;1.88;;;11.30;99.90;;;;;;5055721;28;20315;-83
2023/09/24 05:43:11;;;;;;;4.10;1.98;;;11.30;99.90;;;;;;5057787;28;20028;-83
2023/09/24 05:45:57;;;;;;;2.42;1.60;;;11.40;99.90;;;;;;5058011;28;20028;-83
2023/09/24 05:48:41;;;;;;;7.82;1.95;;;11.40;99.90;;;;;;5056168;28;20152;-83
2023/09/24 05:51:11;;;;;;;1.92;1.70;;;11.50;99.90;;;;;;5062363;28;20128;-83
2023/09/24 05:53:37;;;;;;;2.72;1.75;;;11.60;99.90;;;;;;5058546;28;20107;-82
2023/09/24 05:56:04;;;;;;;4.53;2.03;;;11.70;99.90;;;;;;5067082;28;20024;-83
2023/09/24 05:58:33;;;;;;;2.20;1.75;;;11.70;99.90;;;;;;5063801;28;20098;-84
2023/09/24 06:00:59;;;;;;;4.82;2.10;;;11.90;99.90;;;;;;5062926;28;20040;-81
2023/09/24 06:03:42;;;;;;;3.30;1.90;;;11.90;99.90;;;;;;5062121;28;20036;-85
2023/09/24 06:06:12;;;;;;;8.10;2.22;;;11.90;99.90;;;;;;5065747;28;20033;-82
2023/09/24 06:08:44;;;;;;;2.05;1.73;;;12.00;99.90;;;;;;5066580;28;20033;-83
2023/09/24 06:11:13;;;;;;;5.07;2.05;;;12.00;99.90;;;;;;5057804;28;20093;-83
2023/09/24 06:13:42;;;;;;;3.83;1.90;;;12.10;99.90;;;;;;5061038;28;20115;-83
2023/09/24 06:16:17;;;;;;;2.78;1.98;;;12.20;99.90;;;;;;5058565;28;20021;-84
2023/09/24 06:18:46;;;;;;;5.18;2.47;;;12.20;99.90;;;;;;5061075;28;20032;-82
2023/09/24 06:21:24;;;;;;;6.32;2.30;;;12.30;99.90;;;;;;5060269;28;20040;-83
2023/09/24 06:23:50;;;;;;;5.28;2.67;;;12.30;99.90;;;;;;5060113;28;20032;-83
2023/09/24 06:26:15;;;;;;;5.40;2.22;;;12.40;99.90;;;;;;5060547;28;20037;-83
2023/09/24 06:28:47;;;;;;;3.13;2.45;;;12.50;99.90;;;;;;5057582;28;20047;-84
2023/09/24 06:31:33;;;;;;;3.10;2.00;;;12.60;99.90;;;;;;5060701;28;20074;-83
2023/09/24 06:34:00;;;;;;;4.95;2.30;;;12.70;99.90;;;;;;5056888;28;20126;-83
2023/09/24 06:36:25;;;;;;;3.03;1.83;;;12.80;99.90;;;;;;5059648;28;20427;-83
2023/09/24 06:38:51;;;;;;;4.00;2.00;;;12.90;99.90;;;;;;5055437;28;20530;-82
2023/09/24 06:41:20;;;;;;;4.95;1.73;;;13.00;99.90;;;;;;5073655;28;20480;-84
2023/09/24 06:43:45;;;;;;;4.57;2.60;;;13.00;99.90;;;;;;5068395;28;20033;-83
2023/09/24 06:46:11;;;;;;;3.90;1.80;;;13.10;99.90;;;;;;5065408;28;20069;-85
2023/09/24 06:48:36;;;;;;;6.50;2.60;;;13.20;99.90;;;;;;5067962;28;20028;-84
2023/09/24 06:51:09;;;;;;;6.65;1.75;;;13.20;99.90;;;;;;5070127;28;20400;-84
2023/09/24 06:53:38;;;;;;;3.70;1.70;;;13.30;99.90;;;;;;5064751;28;20024;-85
2023/09/24 06:56:07;;;;;;;2.70;1.58;;;13.30;99.90;;;;;;5068143;28;20499;-84
2023/09/24 06:58:34;;;;;;;6.68;1.88;;;13.40;99.90;;;;;;5069774;28;20025;-84
2023/09/24 07:01:01;;;;;;;5.28;1.30;;;13.40;99.90;;;;;;5065478;28;20024;-84
2023/09/24 07:03:27;;;;;;;3.85;1.85;;;13.50;99.90;;;;;;5068929;28;20111;-84
2023/09/24 07:05:53;;;;;;;3.47;1.70;;;13.50;99.90;;;;;;5069671;28;20479;-84
2023/09/24 07:08:20;;;;;;;4.45;1.63;;;13.60;99.90;;;;;;5069089;28;20040;-84
2023/09/24 07:10:50;;;;;;;2.53;1.45;;;13.60;99.90;;;;;;5064559;28;20024;-84
2023/09/24 07:13:16;;;;;;;2.20;1.35;;;13.60;99.90;;;;;;5067036;28;20081;-85
2023/09/24 07:15:41;;;;;;;5.45;1.65;;;13.70;99.90;;;;;;5063883;28;20025;-85
2023/09/24 07:18:08;;;;;;;2.38;1.40;;;13.70;99.90;;;;;;5068708;28;20392;-85
2023/09/24 07:20:34;;;;;;;5.20;1.90;;;13.70;99.90;;;;;;5069389;28;20028;-84
2023/09/24 07:22:59;;;;;;;4.47;1.60;;;13.80;99.90;;;;;;5068110;28;20035;-84
2023/09/24 07:25:25;;;;;;;7.35;1.80;;;13.90;99.90;;;;;;5063483;28;20024;-84
2023/09/24 07:27:51;;;;;;;3.13;1.73;;;14.00;99.90;;;;;;5065856;28;20051;-84
2023/09/24 07:30:17;;;;;;;6.18;1.88;;;14.10;99.90;;;;;;5063951;28;20082;-84
2023/09/24 07:32:52;;;;;;;4.50;1.60;;;14.20;99.90;;;;;;5065556;28;20052;-84
2023/09/24 07:35:17;;;;;;;4.45;1.95;;;14.20;99.90;;;;;;5061529;28;20033;-84
2023/09/24 07:37:43;;;;;;;3.25;1.33;;;14.30;99.90;;;;;;5065904;28;20036;-84
2023/09/24 07:40:10;;;;;;;5.18;1.67;;;14.30;99.90;;;;;;5068077;28;20034;-84
2023/09/24 07:42:35;;;;;;;8.85;3.30;;;14.30;99.90;;;;;;5067825;28;20036;-84
2023/09/24 07:45:01;;;;;;;2.47;1.70;;;14.30;99.90;;;;;;5065959;28;20046;-85
2023/09/24 07:47:27;;;;;;;4.40;2.17;;;14.30;99.90;;;;;;5065440;28;20036;-83
2023/09/24 07:49:55;;;;;;;3.13;1.50;;;14.30;99.90;;;;;;5066890;28;20150;-84
2023/09/24 07:52:20;;;;;;;2.15;1.30;;;14.30;99.90;;;;;;5065982;28;20036;-84
2023/09/24 07:54:46;;;;;;;2.83;1.80;;;14.30;99.90;;;;;;5063830;28;20036;-84
2023/09/24 07:57:12;;;;;;;2.33;1.50;;;14.20;99.90;;;;;;5060615;28;20029;-84
2023/09/24 07:59:38;;;;;;;5.45;1.60;;;14.30;99.90;;;;;;5060963;28;20035;-84
2023/09/24 08:02:03;;;;;;;6.88;1.70;;;14.30;99.90;;;;;;5065609;28;20050;-84
2023/09/24 08:04:29;;;;;;;3.70;1.50;;;14.50;99.90;;;;;;5061255;28;20036;-84
2023/09/24 08:06:55;;;;;;;2.65;1.65;;;14.50;99.90;;;;;;5064518;28;20552;-84
2023/09/24 08:09:20;;;;;;;5.82;1.63;;;14.60;99.90;;;;;;5061433;28;20024;-84
2023/09/24 08:11:46;;;;;;;4.95;1.65;;;14.60;99.90;;;;;;5055238;28;20112;-84
2023/09/24 08:14:12;;;;;;;5.18;1.40;;;14.60;99.90;;;;;;5055340;28;20098;-84
2023/09/24 08:16:38;;;;;;;3.20;1.42;;;14.70;99.90;;;;;;5063258;28;20028;-84
2023/09/24 08:19:04;;;;;;;1.40;1.30;;;14.70;99.90;;;;;;5064832;28;20563;-84
2023/09/24 08:21:29;;;;;;;2.70;1.55;;;14.70;99.90;;;;;;5065611;28;20032;-84
2023/09/24 08:23:55;;;;;;;6.63;1.50;;;14.70;99.90;;;;;;5056451;28;20051;-84
2023/09/24 08:26:21;;;;;;;2.10;1.38;;;14.80;99.90;;;;;;5065348;28;20028;-84
2023/09/24 08:28:47;;;;;;;5.88;1.42;;;14.80;99.90;;;;;;5064252;28;20067;-85
2023/09/24 08:31:12;;;;;;;3.05;1.63;;;14.80;99.90;;;;;;5065574;28;20043;-85
2023/09/24 08:33:38;;;;;;;2.88;1.52;;;14.80;99.90;;;;;;5066812;28;20111;-84
2023/09/24 08:36:10;;;;;;;2.67;1.58;;;14.80;99.90;;;;;;5066734;28;20024;-83
2023/09/24 08:38:36;;;;;;;1.63;1.20;;;14.90;99.90;;;;;;5062713;28;20031;-84
2023/09/24 08:41:12;;;;;;;2.30;1.25;;;14.90;99.90;;;;;;5064759;28;20115;-84
2023/09/24 08:43:41;;;;;;;6.70;2.25;;;14.90;99.90;;;;;;5063664;28;20920;-84
2023/09/24 08:46:09;;;;;;;5.18;1.20;;;15.00;99.90;;;;;;5061155;28;20025;-84
2023/09/24 08:48:35;;;;;;;3.55;1.80;;;15.10;99.90;;;;;;5057729;28;20060;-83
2023/09/24 08:51:03;;;;;;;5.13;1.55;;;15.10;99.90;;;;;;5058559;28;20036;-83
2023/09/24 08:53:30;;;;;;;7.18;1.75;;;15.30;99.90;;;;;;5063673;28;20086;-84
2023/09/24 08:55:55;;;;;;;1.95;1.33;;;15.30;99.90;;;;;;5051494;28;20052;-85
2023/09/24 08:58:22;;;;;;;1.33;1.13;;;15.40;99.90;;;;;;5056027;28;20500;-84
2023/09/24 09:00:48;;;;;;;6.60;1.45;;;15.40;99.90;;;;;;5055516;28;20021;-85
2023/09/24 09:03:14;;;;;;;3.97;1.38;;;15.40;99.90;;;;;;5057366;28;20027;-85
2023/09/24 09:05:42;;;;;;;3.17;1.23;;;15.50;99.90;;;;;;5053807;28;20032;-85
2023/09/24 09:08:07;;;;;;;3.00;1.15;;;15.60;99.90;;;;;;5058844;28;20073;-83
2023/09/24 09:10:35;;;;;;;5.05;2.03;;;15.50;99.90;;;;;;5062832;28;20477;-84
2023/09/24 09:13:15;;;;;;;1.02;0.80;;;15.50;99.90;;;;;;5056336;28;20385;-85
2023/09/24 09:15:43;;;;;;;3.67;1.00;;;15.50;99.90;;;;;;5057478;28;20028;-85
2023/09/24 09:18:25;;;;;;;1.85;1.00;;;15.50;99.90;;;;;;5060421;28;20031;-85
2023/09/24 09:20:58;;;;;;;3.80;1.13;;;15.40;99.90;;;;;;5057386;28;20389;-85
2023/09/24 09:23:46;;;;;;;1.45;0.80;;;15.50;99.90;;;;;;5054477;28;20116;-85
2023/09/24 09:26:13;;;;;;;1.48;0.90;;;15.50;99.90;;;;;;5060251;28;20151;-86
2023/09/24 09:28:40;;;;;;;1.20;0.90;;;15.60;99.90;;;;;;5056592;28;20098;-86
2023/09/24 09:31:10;;;;;;;2.50;1.20;;;15.50;99.90;;;;;;5059113;28;20465;-84
2023/09/24 09:33:39;;;;;;;2.38;0.95;;;15.60;99.90;;;;;;5062134;28;20029;-85
2023/09/24 09:36:20;;;;;;;2.55;1.13;;;15.60;99.90;;;;;;5062998;28;20052;-85
2023/09/24 09:38:45;;;;;;;1.92;1.10;;;15.70;99.90;;;;;;5067990;28;20024;-85
2023/09/24 09:41:15;;;;;;;2.00;1.20;;;15.80;99.90;;;;;;5064166;28;20032;-85
2023/09/24 09:43:45;;;;;;;4.25;1.10;;;15.90;99.90;;;;;;5063425;28;20020;-84
2023/09/24 09:46:16;;;;;;;4.50;0.98;;;16.00;99.90;;;;;;5063338;28;20113;-85
2023/09/24 09:48:48;;;;;;;2.13;1.10;;;15.90;99.90;;;;;;5060671;28;20091;-85
2023/09/24 09:51:18;;;;;;;1.85;1.23;;;15.90;99.90;;;;;;5067746;28;20052;-85
2023/09/24 09:53:45;;;;;;;3.65;1.75;;;15.90;99.90;;;;;;5057180;28;20025;-84
2023/09/24 09:56:11;;;;;;;4.38;1.13;;;15.90;99.90;;;;;;5060957;28;20040;-84
2023/09/24 09:58:41;;;;;;;5.20;1.08;;;15.90;99.90;;;;;;5059148;28;20388;-86
2023/09/24 10:01:07;;;;;;;0.80;0.80;;;15.90;99.90;;;;;;5055681;28;20033;-85
2023/09/24 10:03:41;;;;;;;1.73;0.90;;;15.90;99.90;;;;;;5063502;28;20028;-82
2023/09/24 10:06:09;;;;;;;3.28;1.15;;;15.90;99.90;;;;;;5063717;28;20041;-83
2023/09/24 10:08:44;;;;;;;1.80;0.98;;;16.00;99.90;;;;;;5061738;28;20039;-83
2023/09/24 10:11:32;;;;;;;3.75;1.45;;;16.10;99.90;;;;;;5054498;28;20036;-83
2023/09/24 10:14:05;;;;;;;2.20;1.10;;;16.20;99.90;;;;;;5060345;28;20087;-83
2023/09/24 10:16:40;;;;;;;2.05;0.98;;;16.30;99.90;;;;;;5057713;28;20043;-83
2023/09/24 10:19:13;;;;;;;2.50;1.08;;;16.30;99.90;;;;;;5060600;28;20202;-84
2023/09/24 10:21:43;;;;;;;4.82;1.25;;;16.40;99.90;;;;;;5058542;28;20037;-82
2023/09/24 10:24:15;;;;;;;4.88;1.25;;;16.40;99.90;;;;;;5057987;28;20058;-84
2023/09/24 10:26:51;;;;;;;6.47;1.00;;;16.40;99.90;;;;;;5061517;28;20025;-86
2023/09/24 10:29:19;;;;;;;2.80;1.02;;;16.40;99.90;;;;;;5057758;28;20058;-87
2023/09/24 10:32:10;;;;;;;2.70;1.10;;;16.40;99.90;;;;;;5061352;28;20024;-85
2023/09/24 10:34:59;;;;;;;6.57;1.00;;;16.50;99.90;;;;;;5058240;28;20419;-85
2023/09/24 10:37:28;;;;;;;2.33;1.13;;;16.50;99.90;;;;;;5058929;28;20055;-85
2023/09/24 10:40:09;;;;;;;1.90;1.17;;;16.60;99.90;;;;;;5062192;28;20040;-84
2023/09/24 10:42:37;;;;;;;3.00;0.73;;;16.60;99.90;;;;;;5065112;28;20024;-84
2023/09/24 10:45:12;;;;;;;3.92;1.27;;;16.60;99.90;;;;;;5061366;28;20459;-82
2023/09/24 10:47:42;;;;;;;4.35;1.33;;;16.60;99.90;;;;;;5063410;28;20040;-82
2023/09/24 10:50:18;;;;;;;4.63;1.33;;;16.70;99.90;;;;;;5065915;28;20098;-83
2023/09/24 10:52:49;;;;;;;1.40;0.88;;;16.70;99.90;;;;;;5063515;28;20035;-85
2023/09/24 10:55:33;;;;;;;3.10;1.10;;;16.70;99.90;;;;;;5064980;28;20079;-85
2023/09/24 10:58:11;;;;;;;2.17;1.15;;;16.50;99.90;;;;;;5063167;28;20024;-85
2023/09/24 11:00:37;;;;;;;2.63;1.08;;;16.50;99.90;;;;;;5067131;28;20257;-85
2023/09/24 11:03:05;;;;;;;2.22;0.75;;;16.40;99.90;;;;;;5069361;28;20043;-85
2023/09/24 11:05:40;;;;;;;0.45;0.43;;;16.40;99.90;;;;;;5064352;28;20033;-85
2023/09/24 11:08:07;;;;;;;2.47;1.17;;;16.30;99.90;;;;;;5059873;28;20139;-85
2023/09/24 11:10:33;;;;;;;3.40;1.08;;;16.30;99.90;;;;;;5064215;28;20544;-85
2023/09/24 11:13:01;;;;;;;3.95;1.25;;;16.40;99.90;;;;;;5069089;28;20127;-85
2023/09/24 11:15:32;;;;;;;4.07;1.10;;;16.30;99.90;;;;;;5053617;28;20073;-85
2023/09/24 11:17:58;;;;;;;2.42;1.17;;;16.30;99.90;;;;;;5058428;28;20025;-85
2023/09/24 11:20:25;;;;;;;2.75;1.15;;;16.30;99.90;;;;;;5063587;28;20120;-84
2023/09/24 11:23:02;;;;;;;3.30;1.13;;;16.30;99.90;;;;;;5064334;28;20039;-84
2023/09/24 11:25:29;;;;;;;1.75;1.63;;;16.40;99.90;;;;;;5059503;28;20119;-86
2023/09/24 11:28:00;;;;;;;2.78;1.30;;;16.50;99.90;;;;;;5060242;28;20057;-84
2023/09/24 11:30:38;;;;;;;3.58;1.08;;;16.50;99.90;;;;;;5060853;28;20031;-80
2023/09/24 11:33:11;;;;;;;1.10;1.00;;;16.50;99.90;;;;;;5055323;28;20040;-80
2023/09/24 11:35:37;;;;;;;2.85;1.00;;;16.50;99.90;;;;;;5056640;28;20024;-81
2023/09/24 11:38:03;;;;;;;2.38;1.15;;;16.60;99.90;;;;;;5066402;28;20086;-80
2023/09/24 11:40:37;;;;;;;3.42;0.90;;;16.60;99.90;;;;;;5065878;28;20574;-80
2023/09/24 11:43:10;;;;;;;1.40;0.85;;;16.70;99.90;;;;;;5057359;28;20514;-79
2023/09/24 11:45:46;;;;;;;2.65;0.80;;;16.70;99.90;;;;;;5059322;28;20464;-80
2023/09/24 11:48:18;;;;;;;1.33;0.82;;;16.80;99.90;;;;;;5056912;28;20055;-80
2023/09/24 11:50:51;;;;;;;2.95;1.02;;;16.80;99.90;;;;;;5064322;28;20028;-81
2023/09/24 11:53:19;;;;;;;1.80;0.85;;;16.90;99.90;;;;;;5062147;28;20028;-80
2023/09/24 11:55:45;;;;;;;1.13;1.02;;;16.90;99.90;;;;;;5059909;28;20029;-80
2023/09/24 11:58:11;;;;;;;4.20;1.27;;;16.90;99.90;;;;;;5061991;28;20051;-80
2023/09/24 12:00:38;;;;;;;3.15;1.00;;;16.90;99.90;;;;;;5061137;28;20024;-80
2023/09/24 12:03:05;;;;;;;2.50;1.15;;;17.00;99.90;;;;;;5063001;28;20107;-81
2023/09/24 12:05:32;;;;;;;5.35;1.00;;;16.90;99.90;;;;;;5065999;28;20516;-80
2023/09/24 12:07:58;;;;;;;4.40;1.00;;;16.90;99.90;;;;;;5051892;28;20210;-81
2023/09/24 12:10:24;;;;;;;1.00;0.90;;;16.90;99.90;;;;;;5062953;28;20025;-80
2023/09/24 12:12:50;;;;;;;5.38;1.52;;;16.80;99.90;;;;;;5063605;28;20040;-80
2023/09/24 12:15:19;;;;;;;4.28;1.08;;;16.80;99.90;;;;;;5057352;28;20078;-80
2023/09/24 12:17:46;;;;;;;2.70;0.90;;;16.80;99.90;;;;;;5063074;28;20474;-81
2023/09/24 12:20:13;;;;;;;9.10;1.50;;;16.70;99.90;;;;;;5057695;28;20033;-80
2023/09/24 12:22:43;;;;;;;2.95;1.20;;;16.70;99.90;;;;;;5061353;28;20457;-81
2023/09/24 12:25:10;;;;;;;1.05;1.05;;;16.80;99.90;;;;;;5060944;28;20209;-82
2023/09/24 12:27:37;;;;;;;5.65;2.58;;;16.70;99.90;;;;;;5058040;28;20052;-81
2023/09/24 12:30:04;;;;;;;4.82;1.70;;;16.70;99.90;;;;;;5057069;28;20016;-81
2023/09/24 12:32:31;;;;;;;3.40;1.70;;;16.70;99.90;;;;;;5061756;28;20544;-81
2023/09/24 12:34:57;;;;;;;1.10;1.00;;;16.60;99.90;;;;;;5063954;28;20392;-81
2023/09/24 12:37:22;;;;;;;3.92;1.67;;;16.60;99.90;;;;;;5063228;28;20032;-80
2023/09/24 12:39:48;;;;;;;1.83;1.10;;;16.60;99.90;;;;;;5061399;28;20027;-80
2023/09/24 12:42:14;;;;;;;1.73;1.05;;;16.70;99.90;;;;;;5062341;28;20035;-80
2023/09/24 12:44:40;;;;;;;2.80;1.10;;;16.80;99.90;;;;;;5060473;28;20020;-81
2023/09/24 12:47:05;;;;;;;2.25;1.05;;;16.90;99.90;;;;;;5062221;28;20028;-80
2023/09/24 12:49:31;;;;;;;1.23;1.05;;;17.10;99.90;;;;;;5061744;28;20473;-80
2023/09/24 12:51:57;;;;;;;2.97;1.13;;;17.30;99.90;;;;;;5057244;28;20021;-81
2023/09/24 12:54:23;;;;;;;4.25;1.00;;;17.40;99.90;;;;;;5060571;28;20046;-81